METAR Formatted Surface Weather Observation
Issued by NWS Honolulu, HI

Home | Current Version | Previous Version | Text Only | Print | Product List | Glossary On
Versions: 1 2
SAHW31 PHFO 250335
SPECI PHTO 250334Z 27005KT 3SM BKN014 OVC022 23/21 A3004 RMK AO2 SFC
VIS 7 RAE0256 P0000 T02280211 is the U.S. government's official web portal to all federal, state and local government web resources and services.